DW8618 Nerja ES current weather conditions

sailwx.info

Wind from 212

Air temperature 12.2° C
Dewpoint 6.7° C

Last reported at 2018-Feb-24 17:01 UTC.
Time now 2018-Feb-24 18:01 UTC

Location: N 36°46' W 003°52'.
View on Google Maps.

See reports from other nearby stations

  
Tides and Currents Weather Stations Pressure Air Temp Water Temp Dewpoint Dewpoint Depression Visibility Wind Speed Wind Dir Waves Ship Positions
date/time (UTC)wind fromknots sea level pressurealtimeterstation pressurevisibilityair tempwater tempwave heightnotes
2018-Feb-24 17:01 212 12.2
2018-Feb-24 16:45 173 3 gusting 5 12.2
2018-Feb-24 16:30 189 3 gusting 6 12.2
2018-Feb-24 16:15 167 4 gusting 5 12.2
2018-Feb-24 16:01 046 12.8
2018-Feb-24 15:45 070 12.8
2018-Feb-24 15:31 174 12.2
2018-Feb-24 15:15 179 12.2
2018-Feb-24 15:01 186 12.2
2018-Feb-24 14:45 182 1 gusting 3 12.2
2018-Feb-24 14:30 206 0 gusting 3 12.2
2018-Feb-24 14:15 178 12.2
2018-Feb-24 14:01 163 1 gusting 4 12.2
2018-Feb-24 13:45 163 5 gusting 8 12.8
2018-Feb-24 13:30 205 4 gusting 8 12.8
2018-Feb-24 13:16 165 3 gusting 8 12.8
2018-Feb-24 13:01 198 3 gusting 7 13.3
2018-Feb-24 12:45 162 2 gusting 6 13.3
2018-Feb-24 12:30 176 3 gusting 6 12.8
2018-Feb-24 12:15 120 1 gusting 5 12.8
2018-Feb-24 12:01 155 4 gusting 9 12.8
2018-Feb-24 11:45 162 6 gusting 8 12.8
2018-Feb-24 11:30 155 5 gusting 9 12.8
2018-Feb-24 11:15 153 4 gusting 9 12.8
2018-Feb-24 11:01 126 4 gusting 8 12.8
2018-Feb-24 10:45 142 1 gusting 7 12.8
2018-Feb-24 10:31 156 4 gusting 7 12.8
2018-Feb-24 10:15 155 3 gusting 8 12.8
2018-Feb-24 10:01 171 2 gusting 6 12.8
2018-Feb-24 09:45 081 0 gusting 3 12.2
2018-Feb-24 09:31 107 11.7
2018-Feb-24 09:15 079 1 gusting 6 11.7
2018-Feb-24 09:01 129 11.1
2018-Feb-24 08:45 074 0 gusting 4 11.1
2018-Feb-24 08:30 095 0 gusting 4 11.1
2018-Feb-24 08:16 138 0 gusting 4 11.1
2018-Feb-24 08:01 078 1 gusting 5 11.1
2018-Feb-24 07:46 132 11.1
2018-Feb-24 07:30 123 10.6
2018-Feb-24 07:15 086 10.6
2018-Feb-24 07:01 130 0 gusting 5 10.6
2018-Feb-24 06:45 098 0 gusting 2 10.6
2018-Feb-24 06:31 080 1 gusting 6 10.6
2018-Feb-24 06:15 101 0 gusting 4 10.6
2018-Feb-24 06:01 114 10.6
2018-Feb-24 05:45 099 10.6
2018-Feb-24 05:31 117 10.6
2018-Feb-24 05:15 092 10.0
2018-Feb-24 05:01 069 10.6
2018-Feb-24 04:45 111 10.6
2018-Feb-24 04:30 103 10.6
2018-Feb-24 04:16 097 10.6
2018-Feb-24 04:01 059 10.6
2018-Feb-24 03:46 094 10.6
2018-Feb-24 03:30 073 10.6
2018-Feb-24 03:15 109 10.6
2018-Feb-24 03:01 105 10.6
2018-Feb-24 02:45 130 10.6
2018-Feb-24 02:30 121 11.1
2018-Feb-24 02:15 129 0 gusting 5 11.1
2018-Feb-24 02:01 129 1 gusting 6 11.1
2018-Feb-24 01:45 132 0 gusting 6 11.1
2018-Feb-24 01:30 142 1 gusting 6 11.7
2018-Feb-24 01:16 171 11.7
2018-Feb-24 01:01 102 11.7
2018-Feb-24 00:30 114 11.1
2018-Feb-24 00:15 167 1 gusting 7 11.1
2018-Feb-24 00:01 082 2 gusting 8 11.1
2018-Feb-23 23:45 150 0 gusting 4 11.1
2018-Feb-23 23:30 103 0 gusting 6 11.7
2018-Feb-23 23:15 146 0 gusting 5 11.7
2018-Feb-23 23:01 096 11.7
2018-Feb-23 22:45 122 1 gusting 6 11.7
2018-Feb-23 22:31 103 1 gusting 6 11.7
2018-Feb-23 22:15 146 1 gusting 5 11.7
2018-Feb-23 22:01 155 1 gusting 4 11.7
2018-Feb-23 21:45 132 0 gusting 5 11.7
2018-Feb-23 21:30 063 0 gusting 6 11.7
2018-Feb-23 21:15 115 11.7
2018-Feb-23 21:01 061 1 gusting 6 11.7
2018-Feb-23 20:45 132 11.7
2018-Feb-23 20:30 135 11.7
2018-Feb-23 20:16 111 1 gusting 6 11.7
2018-Feb-23 20:01 150 11.7
2018-Feb-23 19:45 127 12.2
2018-Feb-23 19:30 129 1 gusting 6 12.2
2018-Feb-23 19:15 096 12.2
2018-Feb-23 19:01 142 2 gusting 6 12.2
2018-Feb-23 18:45 137 2 gusting 6 12.2
2018-Feb-23 18:31 123 0 gusting 6 12.2
2018-Feb-23 18:15 132 2 gusting 6 12.2
2018-Feb-23 18:01 105 1 gusting 7 12.2
2018-Feb-23 17:45 089 2 gusting 7 12.8
2018-Feb-23 17:30 146 1 gusting 7 12.8
2018-Feb-23 17:15 134 3 gusting 6 12.8
2018-Feb-23 17:01 178 1 gusting 7 13.3
2018-Feb-23 16:46 142 0 gusting 7 13.3
2018-Feb-23 16:30 123 1 gusting 7 13.3
2018-Feb-23 16:15 145 3 gusting 10 13.3
2018-Feb-23 16:01 124 3 gusting 12 13.3
2018-Feb-23 15:45 165 5 gusting 10 13.3
2018-Feb-23 15:31 148 3 gusting 9 13.9
2018-Feb-23 15:15 167 2 gusting 10 13.9
2018-Feb-23 15:01 155 3 gusting 8 13.9
2018-Feb-23 14:45 157 1 gusting 7 14.4
2018-Feb-23 14:30 104 1 gusting 7 14.4
2018-Feb-23 14:16 126 1 gusting 8 14.4
2018-Feb-23 14:01 098 4 gusting 7 13.9
2018-Feb-23 13:45 157 1 gusting 8 13.9
2018-Feb-23 13:30 144 3 gusting 7 13.9
2018-Feb-23 13:15 167 3 gusting 9 13.9
2018-Feb-23 13:01 148 4 gusting 8 13.9
2018-Feb-23 12:45 161 2 gusting 8 13.9
2018-Feb-23 12:30 157 1 gusting 9 13.9
2018-Feb-23 12:15 138 2 gusting 10 13.9
2018-Feb-23 12:01 113 1 gusting 9 13.9
2018-Feb-23 11:45 175 3 gusting 9 13.9
2018-Feb-23 11:30 136 3 gusting 7 14.4
2018-Feb-23 11:15 120 1 gusting 8 13.9
2018-Feb-23 11:01 134 2 gusting 6 13.9
2018-Feb-23 10:45 136 3 gusting 6 13.3
2018-Feb-23 10:30 175 4 gusting 8 13.3
2018-Feb-23 10:15 189 1 gusting 6 13.3
2018-Feb-23 10:01 092 0 gusting 8 13.3
2018-Feb-23 09:45 137 3 gusting 8 12.8
2018-Feb-23 09:15 101 1 gusting 7 12.8
2018-Feb-23 09:01 139 1 gusting 6 12.8
2018-Feb-23 08:45 172 4 gusting 6 12.8
2018-Feb-23 08:30 170 12.8
2018-Feb-23 08:15 181 11.7
2018-Feb-23 08:01 057 10.6
2018-Feb-23 07:45 023 10.0
2018-Feb-23 07:30 360 9.4
2018-Feb-23 07:15 350 0 gusting 3 9.4
2018-Feb-23 07:01 021 0 gusting 3 8.9
2018-Feb-23 06:45 360 1 gusting 3 8.9
2018-Feb-23 06:30 009 0 gusting 3 8.9
2018-Feb-23 06:15 017 8.9
2018-Feb-23 06:01 005 1 gusting 2 8.9
2018-Feb-23 05:46 334 9.4
2018-Feb-23 05:30 360 9.4
2018-Feb-23 05:15 360 0 gusting 3 9.4
2018-Feb-23 05:01 343 5 gusting 9 9.4
2018-Feb-23 04:45 321 6 gusting 8 9.4
2018-Feb-23 04:30 317 6 gusting 7 9.4
2018-Feb-23 04:15 341 10.0
2018-Feb-23 04:01 323 4 gusting 8 10.0
2018-Feb-23 03:45 344 5 gusting 8 10.0
2018-Feb-23 03:31 344 6 gusting 8 10.0
2018-Feb-23 03:15 316 1 gusting 6 10.6
2018-Feb-23 03:01 315 5 gusting 8 10.0
2018-Feb-23 02:46 327 1 gusting 4 10.0
2018-Feb-23 02:30 330 2 gusting 5 10.0
2018-Feb-23 02:16 329 3 gusting 6 10.6
2018-Feb-23 02:01 349 0 gusting 3 10.6
2018-Feb-23 01:45 360 11.7
2018-Feb-23 01:30 107 12.8
2018-Feb-23 01:15 115 12.8
2018-Feb-23 01:01 102 13.3
2018-Feb-23 00:45 049 13.9
2018-Feb-23 00:31 049 13.9
2018-Feb-23 00:15 076 13.9
2018-Feb-23 00:01 355 13.9
2018-Feb-22 23:46 037 14.4
2018-Feb-22 23:30 051 0 gusting 5 14.4
2018-Feb-22 23:16 057 0 gusting 14 14.4
2018-Feb-22 23:01 360 6 gusting 15 14.4
2018-Feb-22 22:46 329 12 gusting 20 14.4
2018-Feb-22 22:30 017 7 gusting 14 14.4
2018-Feb-22 22:15 005 10 gusting 16 14.4
2018-Feb-22 22:01 347 6 gusting 15 14.4
2018-Feb-22 21:45 011 9 gusting 19 15.0
2018-Feb-22 21:31 046 6 gusting 18 14.4
2018-Feb-22 21:15 068 3 gusting 12 14.4
2018-Feb-22 21:01 030 4 gusting 13 14.4
2018-Feb-22 20:45 048 2 gusting 8 14.4
2018-Feb-22 20:30 034 3 gusting 9 13.3
2018-Feb-22 20:16 005 3 gusting 8 11.1
2018-Feb-22 20:01 360 11.1
2018-Feb-22 19:45 017 11.7
2018-Feb-22 19:30 040 12.2
2018-Feb-22 19:15 346 12.2
2018-Feb-22 19:01 023 12.8
2018-Feb-22 18:45 331 13.3
2018-Feb-22 18:30 009 13.3
2018-Feb-22 18:15 338 13.9
2018-Feb-22 18:01 304 13.9